ETEB 192356Z AUTO 22005KT 9999 FEW055 15/15 A3021 RMK AO2 SLP226 60000 T01500148 10272 20149 50004 $ ETEB 192256Z AUTO 17004KT 9999 CLR 15/15 A3021 RMK AO2 SLP228 T01510149 402910127 $ ETEB 192156Z AUTO 22006KT 9999 CLR 15/15 A3023 RMK AO2 RAE03DZB03E07 SLP237 P0000 T01520150 $ ETEB 192107Z AUTO 09007KT 9999 SCT045 OVC075 16/15 A3019 RMK AO2 LTG DSNT N AND E RAE03DZB03E07 SLP223 $ ETEB 192056Z AUTO 09009KT 9999 -RA BKN049 16/15 A3020 RMK AO2 TSE34TSB38E53 SLP226 P0000 60000 T01560154 50026 $ ETEB 192053Z AUTO 08009KT 9999 -RA OVC050 16/15 A3020 RMK AO2 TSE34TSB38E53 PRESFR SLP226 $ ETEB 192038Z AUTO 05006KT 9999 TSRA OVC050 16/16 A3023 RMK AO2 TSE34TSB38 SLP239 $ ETEB 192034Z AUTO 02008KT 9999 RA OVC050 16/16 A3024 RMK AO2 LTG DSNT SE AND SW TSE34 SLP242 $ ETEB 191956Z AUTO 36010G30KT 8000 +TSRA BKN034 OVC050 16/16 A3022 RMK AO2 PK WND 33031/13 DZB08E17DZB23E30RAB30 TSB28 SLP235 P0000 T01640162 $ ETEB 191933Z AUTO 34014G23KT 9999 -TSRA SCT050 BKN090 19/15 A3023 RMK AO2 WSHFT 29 DZB08E17DZB23E30RAB30 TSB28 SLP237 $ ETEB 191929Z AUTO 29017G25KT 9999 TS -DZ FEW050 SCT090 20/13 A3023 RMK AO2 WSHFT 16 DZB08E17DZB23 TSB28 SLP237 $ ETEB 191928Z AUTO 30014G25KT 9999 TS -DZ FEW050 SCT090 20/13 A3023 RMK AO2 DZB08E17DZB23 TSB28 PRESRR SLP237 $ ETEB 191923Z AUTO 33015G31KT 9999 VCTS -DZ FEW070 FEW090 21/13 A3020 RMK AO2 DZB08E17DZB23 SLP226 $ ETEB 191917Z AUTO 33022G31KT 9999 FEW090 22/13 A3019 RMK AO2 LTG DSNT W-NW DZB08E17 PRESRR SLP221 $ ETEB 191908Z AUTO 31017G28KT 9999 -DZ FEW095 24/14 A3016 RMK AO2 LTG DSNT W DZB08 PRESRR SLP209 $ ETEB 191856Z AUTO 22005KT 9999 CLR 25/15 A3013 RMK AO2 LTG DSNT W SLP198 T02470147 $ ETEB 191756Z AUTO 00000KT 9999 CLR 27/14 A3012 RMK AO2 LTG DSNT SW SLP195 T02730143 10291 20266 53000 $ ETEB 191656Z AUTO 22004KT 9999 CLR 28/14 A3011 RMK AO2 SLP192 T02760139 $ ETEB 191556Z AUTO 21004KT 9999 CLR 28/13 A3011 RMK AO2 SLP192 T02840131 $ ETEB 191456Z AUTO 25008KT 9999 CLR 28/13 A3012 RMK AO2 SLP197 T02830130 57015 $ ETEB 191356Z AUTO 21004KT 9999 CLR 28/14 A3014 RMK AO2 SLP202 T02800139 $ ETEB 191256Z AUTO 21005KT 9999 CLR 27/13 A3015 RMK AO2 SLP205 T02730125 $ ETEB 191156Z AUTO 23003KT 9999 CLR 27/12 A3016 RMK AO2 SLP209 T02680120 10268 20148 57008 $ ETEB 191056Z AUTO 20004KT 9999 CLR 25/12 A3017 RMK AO2 SLP214 T02470120 $ ETEB 190956Z AUTO 18008KT 9999 CLR 23/11 A3018 RMK AO2 SLP217 T02340108 $ ETEB 190856Z AUTO 12008KT 9999 CLR 21/10 A3019 RMK AO2 SLP221 T02130098 55004 $ ETEB 190756Z AUTO 14007KT 9999 CLR 19/09 A3020 RMK AO2 SLP226 T01910090 $ ETEB 190656Z AUTO 12006KT 9999 CLR 17/08 A3019 RMK AO2 SLP223 T01660078 $ ETEB 190556Z AUTO 13006KT 9999 CLR 15/07 A3020 RMK AO2 SLP226 T01470065 10154 20127 53003 $ ETEB 190456Z AUTO 12007KT 9999 CLR 14/05 A3019 RMK AO2 SLP223 T01370053 $ ETEB 190356Z AUTO 11012KT 9999 CLR 14/04 A3018 RMK AO2 SLP217 T01350044 $ ETEB 190256Z AUTO 12008KT 9999 CLR 13/05 A3019 RMK AO2 SLP223 T01290053 58004 $ ETEB 190156Z AUTO 12007KT 9999 CLR 14/05 A3020 RMK AO2 SLP226 T01350054 $ ETEB 190056Z AUTO 12006KT 9999 CLR 14/07 A3020 RMK AO2 SLP226 T01410074 $ ETEB 182356Z AUTO 12007KT 9999 CLR 15/08 A3020 RMK AO2 SLP224 T01540082 10225 20153 58004 $ ETEB 182256Z AUTO 12006KT 9999 CLR 16/09 A3021 RMK AO2 SLP230 T01560088 402510123 $ ETEB 182156Z AUTO 13007KT 9999 CLR 17/09 A3022 RMK AO2 SLP233 T01670094 $ ETEB 182056Z AUTO 12007KT 9999 CLR 18/10 A3022 RMK AO2 SLP231 T01820095 50003 $ ETEB 181956Z AUTO 11005KT 9999 CLR 19/11 A3022 RMK AO2 SLP231 T01910109 $ ETEB 181856Z AUTO 11005KT 9999 CLR 20/12 A3021 RMK AO2 SLP230 T02030118 $ ETEB 181756Z AUTO 11009KT 9999 CLR 23/12 A3021 RMK AO2 SLP230 T02260119 10251 20226 55001 $ ETEB 181656Z AUTO 11010KT 9999 CLR 24/12 A3020 RMK AO2 SLP226 T02360119 $ ETEB 181556Z AUTO 13007KT 9999 SCT070 25/11 A3021 RMK AO2 SLP230 T02500112 $ ETEB 181456Z AUTO 10006KT 9999 CLR 25/12 A3021 RMK AO2 SLP230 T02500115 57008 $

METAR Messwerte "KATTERBACH (USA-" ETEB

Zurück zur Übersicht

Ortsname
Ländercode / m ü. NN
Zeit Temperatur Taupunkt Rel.
Luftfeuchte
Luftdruck:
Altimeter
NN
Station
Wind in Beaufort
(Knoten)
Sichtweite
(Meter)
Wolken
(Meter über Grund)
Wettererscheinung
KATTERBACH (USA-
DE 466
Fr 20.05. 01:561515100 %1023
1023
968
SW 2 (5)>= 10000Leicht bewölkt (1700) 
KATTERBACH (USA-
DE 466
Fr 20.05. 00:561515100 %1023
1023
968
S 2 (4)>= 10000  
KATTERBACH (USA-
DE 466
Do 19.05. 23:561515100 %1024
1024
969
SW 2 (6)>= 10000  
KATTERBACH (USA-
DE 466
Do 19.05. 23:07161594 %1022
1022
967
O 3 (7)>= 10000Bedeckt (2300)
Wolkig (1400)
 
KATTERBACH (USA-
DE 466
Do 19.05. 22:56161594 %1023
1023
968
O 3 (9)>= 10000Stark bewölkt (1500)Regen (schwach)
KATTERBACH (USA-
DE 466
Do 19.05. 22:53161594 %1023
1023
968
O 3 (9)>= 10000Bedeckt (1500)Regen (schwach)
KATTERBACH (USA-
DE 466
Do 19.05. 22:381616100 %1024
1024
969
NO 2 (6)>= 10000Bedeckt (1500)Gewitter mit Regen
KATTERBACH (USA-
DE 466
Do 19.05. 22:341616100 %1024
1024
969
NNO 3 (8)>= 10000Bedeckt (1500)Regen
KATTERBACH (USA-
DE 466
Do 19.05. 21:561616100 %1023
1023
968
N 3 (10) - 7 (30)8000Bedeckt (1500)
Stark bewölkt (1000)
Gewitter mit Regen (stark)
KATTERBACH (USA-
DE 466
Do 19.05. 21:33191578 %1024
1023
969
NNW 4 (14) - 6 (23)>= 10000Stark bewölkt (2700)
Wolkig (1500)
Gewitter mit Regen (schwach)
KATTERBACH (USA-
DE 466
Do 19.05. 21:29201364 %1024
1023
969
WNW 5 (17) - 6 (25)>= 10000Wolkig (2700)
Leicht bewölkt (1500)
Nieselregen (schwach)
KATTERBACH (USA-
DE 466
Do 19.05. 21:28201364 %1024
1023
969
WNW 4 (14) - 6 (25)>= 10000Wolkig (2700)
Leicht bewölkt (1500)
Nieselregen (schwach)
KATTERBACH (USA-
DE 466
Do 19.05. 21:23211360 %1023
1022
968
NNW 4 (15) - 7 (31)>= 10000Leicht bewölkt (2700)
Leicht bewölkt (2100)
Nieselregen (schwach)
KATTERBACH (USA-
DE 466
Do 19.05. 21:17221357 %1022
1021
967
NNW 6 (22) - 7 (31)>= 10000Leicht bewölkt (2700) 
KATTERBACH (USA-
DE 466
Do 19.05. 21:08241454 %1021
1019
966
NW 5 (17) - 7 (28)>= 10000Leicht bewölkt (2900)Nieselregen (schwach)
KATTERBACH (USA-
DE 466
Do 19.05. 20:56251554 %1020
1018
965
SW 2 (5)>= 10000  
KATTERBACH (USA-
DE 466
Do 19.05. 19:56271445 %1020
1018
965
Windstill>= 10000  
KATTERBACH (USA-
DE 466
Do 19.05. 18:56281442 %1020
1018
965
SW 2 (4)>= 10000  
KATTERBACH (USA-
DE 466
Do 19.05. 17:56281340 %1020
1018
965
SSW 2 (4)>= 10000  
KATTERBACH (USA-
DE 466
Do 19.05. 16:56281340 %1020
1018
965
WSW 3 (8)>= 10000  
KATTERBACH (USA-
DE 466
Do 19.05. 15:56281442 %1021
1019
966
SSW 2 (4)>= 10000  
KATTERBACH (USA-
DE 466
Do 19.05. 14:56271342 %1021
1019
966
SSW 2 (5)>= 10000  
KATTERBACH (USA-
DE 466
Do 19.05. 13:56271239 %1021
1019
966
SW 2 (3)>= 10000  
KATTERBACH (USA-
DE 466
Do 19.05. 12:56251244 %1022
1020
967
SSW 2 (4)>= 10000  
KATTERBACH (USA-
DE 466
Do 19.05. 11:56231147 %1022
1021
967
S 3 (8)>= 10000  
KATTERBACH (USA-
DE 466
Do 19.05. 10:56211049 %1022
1021
967
OSO 3 (8)>= 10000  
KATTERBACH (USA-
DE 466
Do 19.05. 09:5619952 %1023
1022
968
SO 3 (7)>= 10000  
KATTERBACH (USA-
DE 466
Do 19.05. 08:5617855 %1022
1022
967
OSO 2 (6)>= 10000  
KATTERBACH (USA-
DE 466
Do 19.05. 07:5615759 %1023
1023
968
SO 2 (6)>= 10000  
KATTERBACH (USA-
DE 466
Do 19.05. 06:5614555 %1022
1022
967
OSO 3 (7)>= 10000  
KATTERBACH (USA-
DE 466
Do 19.05. 05:5614451 %1022
1022
967
OSO 4 (12)>= 10000  
KATTERBACH (USA-
DE 466
Do 19.05. 04:5613558 %1022
1022
967
OSO 3 (8)>= 10000  
KATTERBACH (USA-
DE 466
Do 19.05. 03:5614555 %1023
1023
968
OSO 3 (7)>= 10000  
KATTERBACH (USA-
DE 466
Do 19.05. 02:5614763 %1023
1023
968
OSO 2 (6)>= 10000  
KATTERBACH (USA-
DE 466
Do 19.05. 01:5615863 %1023
1023
968
OSO 3 (7)>= 10000  
KATTERBACH (USA-
DE 466
Do 19.05. 00:5616963 %1023
1023
968
OSO 2 (6)>= 10000  
KATTERBACH (USA-
DE 466
Mi 18.05. 23:5617959 %1023
1023
968
SO 3 (7)>= 10000  
KATTERBACH (USA-
DE 466
Mi 18.05. 22:56181059 %1023
1023
968
OSO 3 (7)>= 10000  
KATTERBACH (USA-
DE 466
Mi 18.05. 21:56191160 %1023
1022
968
OSO 2 (5)>= 10000  
KATTERBACH (USA-
DE 466
Mi 18.05. 20:56201260 %1023
1022
968
OSO 2 (5)>= 10000  
KATTERBACH (USA-
DE 466
Mi 18.05. 19:56231250 %1023
1022
968
OSO 3 (9)>= 10000  
KATTERBACH (USA-
DE 466
Mi 18.05. 18:56241247 %1023
1021
968
OSO 3 (10)>= 10000  
KATTERBACH (USA-
DE 466
Mi 18.05. 17:56251141 %1023
1021
968
SO 3 (7)>= 10000Wolkig (2100) 
KATTERBACH (USA-
DE 466
Mi 18.05. 16:56251244 %1023
1021
968
O 2 (6)>= 10000  

Altimeter: Einstellung am Altimeter (Höhenmesser), die Höhe 0 muss auf diesen Luftdruckwert zeigen, damit das Gerät die Stationshöhe richtig anzeigt.

NN: Luftdruck reduziert auf "Normal Null", auf Meereshöhe, dieser von der Temperatur abhängige Wert wird bisweilen unkorrekt einfach als "Luftdruck" bezeichnet. Eigentlich nur eine fiktive Größe, die es erlaubt, Stationen auf unterschiedlichen Höhen miteinander zu vergleichen.

Station: Realer Luftdruck an der Station.